TFM - Tactical Decision Aid
ID: Runway Winds: CIG/VIS Threshold:

KMDT - Harrisburg Intl, PA, US

Updated at: 1842 UTC 26 Oct 2021
Latest TAF at: 1740 UTC 26 Oct 2021

TAF Board

Time1756Z 26/19Z 26/20Z 26/21Z 26/22Z 26/23Z 27/00Z 27/01Z 27/02Z 27/03Z 27/04Z 27/05Z 27/06Z 27/07Z>>
Type OBS PRVL PRVL PRVL PRVL PRVL PRVL PRVL PRVL PRVL PRVL PRVL PRVL PRVL
VIS 10 >6 >6 >6 5 5 5 5 5 5 >6 >6 >6 >6
CIG 27 23 23 23 25 25 25 25 25 25 25 25 25 25
Cover OVC OVC OVC OVC OVC OVC OVC OVC OVC OVC BKN BKN BKN BKN
FltCat MVFR MVFR MVFR MVFR MVFR MVFR MVFR MVFR MVFR MVFR MVFR MVFR MVFR MVFR
WX -- -- -- -- -RA BR -RA BR -RA BR -RA BR -RA BR -RA BR -- -- -- --
WDir 300 300 300 300 310 310 310 310 310 310 330 330 330 330
WSpd 23 22 22 22 20 20 20 20 20 20 15 15 15 15
WGst 29 34 34 34 35 35 35 35 35 35 26 26 26 26

TDA Impact Legend

  None Marginal Slight Moderate High
Visibility (sm) >5 3≤X≤5 2≤X<3 0.5≤X<2 <0.5
Ceiling (100 ft) >30 10≤X≤30 7≤X<10 2≤X<7 <2
Wind Speed (kt) <15 15≤X<25 25≤X<30 ≥30
Wind Gust (kt) <15 15≤X<25 25≤X<35 ≥35
Weather No Wx Reported VCTS -TS,-FZRA TS,FZRA +TS,+FZRA
TAF
KMDT 261740Z 2618/2718 30022G34KT P6SM BKN023 OVC035
  FM262200 31020G35KT 5SM -RA BR OVC025
  FM270400 33015G26KT P6SM BKN025


METAR
KMDT 261756Z 30023G29KT 10SM OVC027 14/08 A2949 RMK AO2 PK WND 29034/1704 RAE11 SLP986 P0000 60000 T01390078 10183 20139 53001 $
KMDT 261656Z 29026G31KT 10SM -RA OVC023 15/09 A2947 RMK AO2 PK WND 29031/1656 RAB54 SLP980 P0000 T01500094
KMDT 261556Z 29016G25KT 10SM BKN027 OVC033 17/12 A2947 RMK AO2 SLP979 T01720117
KMDT 261544Z 30015KT 10SM BKN027 OVC039 18/12 A2947 RMK AO2 T01780117

Radar Display
Forecast Discussion